sensor_id;sensor_type;location;lat;lon;timestamp;P1;durP1;ratioP1;P2;durP2;ratioP2
75220;SDS011;63802;53.232;6.570;2024-03-23T00:56:38;19.83;;;3.70;;
75220;SDS011;63802;53.232;6.570;2024-03-23T00:59:04;28.10;;;4.15;;
75220;SDS011;63802;53.232;6.570;2024-03-23T01:01:42;19.87;;;4.50;;
75220;SDS011;63802;53.232;6.570;2024-03-23T01:04:31;26.40;;;4.03;;
75220;SDS011;63802;53.232;6.570;2024-03-23T01:07:04;13.48;;;3.97;;
75220;SDS011;63802;53.232;6.570;2024-03-23T01:09:33;23.80;;;4.78;;
75220;SDS011;63802;53.232;6.570;2024-03-23T01:12:52;25.50;;;4.35;;
75220;SDS011;63802;53.232;6.570;2024-03-23T01:15:47;15.65;;;3.90;;
75220;SDS011;63802;53.232;6.570;2024-03-23T01:18:20;20.65;;;3.90;;
75220;SDS011;63802;53.232;6.570;2024-03-23T01:21:01;20.60;;;4.30;;
75220;SDS011;63802;53.232;6.570;2024-03-23T01:30:19;23.52;;;4.18;;
75220;SDS011;63802;53.232;6.570;2024-03-23T01:45:21;17.38;;;3.70;;
75220;SDS011;63802;53.232;6.570;2024-03-23T01:47:48;24.23;;;4.88;;
75220;SDS011;63802;53.232;6.570;2024-03-23T01:50:28;21.92;;;4.10;;
75220;SDS011;63802;53.232;6.570;2024-03-23T01:53:15;16.77;;;3.60;;
75220;SDS011;63802;53.232;6.570;2024-03-23T02:09:17;22.88;;;3.92;;
75220;SDS011;63802;53.232;6.570;2024-03-23T02:12:06;17.52;;;3.53;;
75220;SDS011;63802;53.232;6.570;2024-03-23T02:14:43;16.30;;;3.90;;
75220;SDS011;63802;53.232;6.570;2024-03-23T02:17:17;17.55;;;3.75;;
75220;SDS011;63802;53.232;6.570;2024-03-23T02:19:58;20.50;;;4.57;;
75220;SDS011;63802;53.232;6.570;2024-03-23T02:26:16;17.73;;;4.43;;
75220;SDS011;63802;53.232;6.570;2024-03-23T02:28:42;21.48;;;4.78;;
75220;SDS011;63802;53.232;6.570;2024-03-23T02:41:03;18.30;;;4.22;;
75220;SDS011;63802;53.232;6.570;2024-03-23T02:43:49;14.48;;;3.63;;
75220;SDS011;63802;53.232;6.570;2024-03-23T02:46:40;22.70;;;4.25;;
75220;SDS011;63802;53.232;6.570;2024-03-23T02:49:18;19.13;;;3.63;;
75220;SDS011;63802;53.232;6.570;2024-03-23T02:52:14;16.50;;;3.47;;
75220;SDS011;63802;53.232;6.570;2024-03-23T02:54:59;13.93;;;3.33;;
75220;SDS011;63802;53.232;6.570;2024-03-23T03:01:14;15.63;;;3.13;;
75220;SDS011;63802;53.232;6.570;2024-03-23T03:04:01;17.13;;;3.78;;
75220;SDS011;63802;53.232;6.570;2024-03-23T03:16:10;19.13;;;3.67;;
75220;SDS011;63802;53.232;6.570;2024-03-23T03:18:42;14.57;;;3.08;;
75220;SDS011;63802;53.232;6.570;2024-03-23T03:21:39;16.58;;;3.80;;
75220;SDS011;63802;53.232;6.570;2024-03-23T03:27:57;15.43;;;3.78;;
75220;SDS011;63802;53.232;6.570;2024-03-23T03:33:29;21.70;;;4.10;;
75220;SDS011;63802;53.232;6.570;2024-03-23T03:36:33;14.55;;;3.13;;
75220;SDS011;63802;53.232;6.570;2024-03-23T03:42:38;19.25;;;3.60;;
75220;SDS011;63802;53.232;6.570;2024-03-23T03:49:04;10.98;;;2.42;;
75220;SDS011;63802;53.232;6.570;2024-03-23T03:54:56;15.10;;;3.40;;
75220;SDS011;63802;53.232;6.570;2024-03-23T04:01:38;13.05;;;3.03;;
75220;SDS011;63802;53.232;6.570;2024-03-23T04:10:45;18.67;;;3.42;;
75220;SDS011;63802;53.232;6.570;2024-03-23T04:19:40;16.70;;;3.00;;
75220;SDS011;63802;53.232;6.570;2024-03-23T04:45:34;9.73;;;2.63;;
75220;SDS011;63802;53.232;6.570;2024-03-23T04:48:03;8.57;;;2.53;;
75220;SDS011;63802;53.232;6.570;2024-03-23T04:50:30;10.90;;;2.92;;
75220;SDS011;63802;53.232;6.570;2024-03-23T05:07:04;11.65;;;2.70;;
75220;SDS011;63802;53.232;6.570;2024-03-23T05:13:17;12.57;;;2.55;;
75220;SDS011;63802;53.232;6.570;2024-03-23T05:16:20;18.27;;;2.85;;
75220;SDS011;63802;53.232;6.570;2024-03-23T05:21:56;12.18;;;3.63;;
75220;SDS011;63802;53.232;6.570;2024-03-23T05:24:56;6.72;;;2.17;;
75220;SDS011;63802;53.232;6.570;2024-03-23T05:27:25;13.20;;;2.55;;
75220;SDS011;63802;53.232;6.570;2024-03-23T05:31:22;10.00;;;2.70;;
75220;SDS011;63802;53.232;6.570;2024-03-23T05:37:00;11.45;;;2.63;;
75220;SDS011;63802;53.232;6.570;2024-03-23T05:43:31;12.55;;;2.55;;
75220;SDS011;63802;53.232;6.570;2024-03-23T05:46:15;14.38;;;2.55;;
75220;SDS011;63802;53.232;6.570;2024-03-23T05:48:53;14.70;;;2.65;;
75220;SDS011;63802;53.232;6.570;2024-03-23T05:55:14;13.55;;;2.80;;
75220;SDS011;63802;53.232;6.570;2024-03-23T05:57:43;13.68;;;2.22;;
75220;SDS011;63802;53.232;6.570;2024-03-23T06:00:11;14.05;;;2.60;;
75220;SDS011;63802;53.232;6.570;2024-03-23T06:02:51;11.98;;;3.05;;
75220;SDS011;63802;53.232;6.570;2024-03-23T06:05:35;16.60;;;2.90;;
75220;SDS011;63802;53.232;6.570;2024-03-23T06:08:01;17.67;;;2.67;;
75220;SDS011;63802;53.232;6.570;2024-03-23T06:10:35;8.63;;;2.65;;
75220;SDS011;63802;53.232;6.570;2024-03-23T06:16:02;16.27;;;2.83;;
75220;SDS011;63802;53.232;6.570;2024-03-23T06:21:34;9.70;;;1.95;;
75220;SDS011;63802;53.232;6.570;2024-03-23T06:24:00;10.40;;;2.03;;
75220;SDS011;63802;53.232;6.570;2024-03-23T06:26:40;7.82;;;1.90;;
75220;SDS011;63802;53.232;6.570;2024-03-23T06:30:01;15.00;;;1.90;;
75220;SDS011;63802;53.232;6.570;2024-03-23T06:35:32;13.15;;;2.00;;
75220;SDS011;63802;53.232;6.570;2024-03-23T06:40:52;8.80;;;1.48;;
75220;SDS011;63802;53.232;6.570;2024-03-23T06:43:18;6.88;;;2.00;;
75220;SDS011;63802;53.232;6.570;2024-03-23T06:46:02;8.93;;;2.03;;
75220;SDS011;63802;53.232;6.570;2024-03-23T06:51:36;6.28;;;1.70;;
75220;SDS011;63802;53.232;6.570;2024-03-23T06:54:02;11.20;;;2.10;;
75220;SDS011;63802;53.232;6.570;2024-03-23T06:56:29;9.77;;;2.50;;
75220;SDS011;63802;53.232;6.570;2024-03-23T06:58:58;7.35;;;1.90;;
75220;SDS011;63802;53.232;6.570;2024-03-23T07:01:29;8.98;;;1.70;;
75220;SDS011;63802;53.232;6.570;2024-03-23T07:04:00;8.82;;;2.03;;
75220;SDS011;63802;53.232;6.570;2024-03-23T07:06:26;6.45;;;2.33;;
75220;SDS011;63802;53.232;6.570;2024-03-23T07:08:52;5.60;;;1.80;;
75220;SDS011;63802;53.232;6.570;2024-03-23T07:11:19;7.25;;;2.20;;
75220;SDS011;63802;53.232;6.570;2024-03-23T07:13:57;9.30;;;1.77;;
75220;SDS011;63802;53.232;6.570;2024-03-23T07:16:27;12.57;;;2.97;;
75220;SDS011;63802;53.232;6.570;2024-03-23T07:18:54;7.43;;;2.00;;
75220;SDS011;63802;53.232;6.570;2024-03-23T07:21:20;6.03;;;1.83;;
75220;SDS011;63802;53.232;6.570;2024-03-23T07:23:49;6.50;;;1.92;;
75220;SDS011;63802;53.232;6.570;2024-03-23T07:26:18;6.05;;;2.00;;
75220;SDS011;63802;53.232;6.570;2024-03-23T07:28:49;10.32;;;2.03;;
75220;SDS011;63802;53.232;6.570;2024-03-23T07:31:15;8.57;;;1.83;;
75220;SDS011;63802;53.232;6.570;2024-03-23T07:33:56;5.05;;;1.67;;
75220;SDS011;63802;53.232;6.570;2024-03-23T07:36:23;5.88;;;1.52;;
75220;SDS011;63802;53.232;6.570;2024-03-23T07:38:48;9.25;;;1.88;;
75220;SDS011;63802;53.232;6.570;2024-03-23T07:41:25;3.60;;;1.73;;
75220;SDS011;63802;53.232;6.570;2024-03-23T07:43:55;11.15;;;1.83;;
75220;SDS011;63802;53.232;6.570;2024-03-23T07:46:27;9.77;;;2.15;;
75220;SDS011;63802;53.232;6.570;2024-03-23T07:52:00;4.47;;;1.50;;
75220;SDS011;63802;53.232;6.570;2024-03-23T07:57:22;5.78;;;1.65;;
75220;SDS011;63802;53.232;6.570;2024-03-23T07:59:48;3.40;;;1.50;;
75220;SDS011;63802;53.232;6.570;2024-03-23T08:02:22;8.27;;;1.58;;
75220;SDS011;63802;53.232;6.570;2024-03-23T08:04:54;4.60;;;1.27;;
75220;SDS011;63802;53.232;6.570;2024-03-23T08:07:19;4.07;;;1.35;;
75220;SDS011;63802;53.232;6.570;2024-03-23T08:09:45;4.82;;;1.17;;
75220;SDS011;63802;53.232;6.570;2024-03-23T08:12:11;7.30;;;2.33;;
75220;SDS011;63802;53.232;6.570;2024-03-23T08:14:39;5.82;;;2.10;;
75220;SDS011;63802;53.232;6.570;2024-03-23T08:17:04;7.28;;;1.60;;
75220;SDS011;63802;53.232;6.570;2024-03-23T08:19:39;11.73;;;1.83;;
75220;SDS011;63802;53.232;6.570;2024-03-23T08:22:04;4.68;;;1.50;;
75220;SDS011;63802;53.232;6.570;2024-03-23T08:24:30;5.78;;;1.70;;
75220;SDS011;63802;53.232;6.570;2024-03-23T08:26:58;4.10;;;1.17;;
75220;SDS011;63802;53.232;6.570;2024-03-23T08:29:23;5.68;;;1.75;;
75220;SDS011;63802;53.232;6.570;2024-03-23T08:31:54;5.82;;;1.83;;
75220;SDS011;63802;53.232;6.570;2024-03-23T08:34:20;3.55;;;1.83;;
75220;SDS011;63802;53.232;6.570;2024-03-23T08:36:45;3.03;;;1.48;;
75220;SDS011;63802;53.232;6.570;2024-03-23T08:39:14;10.15;;;2.00;;
75220;SDS011;63802;53.232;6.570;2024-03-23T08:41:50;8.90;;;1.85;;
75220;SDS011;63802;53.232;6.570;2024-03-23T08:44:36;3.72;;;1.88;;
75220;SDS011;63802;53.232;6.570;2024-03-23T08:47:13;4.28;;;1.58;;
75220;SDS011;63802;53.232;6.570;2024-03-23T08:49:46;6.82;;;2.97;;
75220;SDS011;63802;53.232;6.570;2024-03-23T08:52:23;6.55;;;1.67;;
75220;SDS011;63802;53.232;6.570;2024-03-23T08:54:48;8.75;;;2.03;;
75220;SDS011;63802;53.232;6.570;2024-03-23T08:57:14;6.15;;;1.92;;
75220;SDS011;63802;53.232;6.570;2024-03-23T08:59:39;10.48;;;2.08;;
75220;SDS011;63802;53.232;6.570;2024-03-23T09:02:04;7.50;;;1.92;;
75220;SDS011;63802;53.232;6.570;2024-03-23T09:04:36;6.43;;;1.73;;
75220;SDS011;63802;53.232;6.570;2024-03-23T09:07:15;12.25;;;3.55;;
75220;SDS011;63802;53.232;6.570;2024-03-23T09:09:40;11.40;;;2.92;;
75220;SDS011;63802;53.232;6.570;2024-03-23T09:12:06;9.43;;;1.98;;
75220;SDS011;63802;53.232;6.570;2024-03-23T09:14:34;11.32;;;2.15;;
75220;SDS011;63802;53.232;6.570;2024-03-23T09:17:03;8.43;;;2.05;;
75220;SDS011;63802;53.232;6.570;2024-03-23T09:19:29;4.85;;;1.83;;
75220;SDS011;63802;53.232;6.570;2024-03-23T09:21:54;6.82;;;1.65;;
75220;SDS011;63802;53.232;6.570;2024-03-23T09:24:24;11.07;;;2.15;;
75220;SDS011;63802;53.232;6.570;2024-03-23T09:27:00;6.30;;;1.52;;
75220;SDS011;63802;53.232;6.570;2024-03-23T09:29:29;8.43;;;1.90;;
75220;SDS011;63802;53.232;6.570;2024-03-23T09:31:54;10.77;;;1.58;;
75220;SDS011;63802;53.232;6.570;2024-03-23T09:34:21;14.15;;;1.80;;
75220;SDS011;63802;53.232;6.570;2024-03-23T09:39:19;11.70;;;2.28;;
75220;SDS011;63802;53.232;6.570;2024-03-23T09:41:49;9.23;;;1.80;;
75220;SDS011;63802;53.232;6.570;2024-03-23T09:44:18;3.17;;;1.35;;
75220;SDS011;63802;53.232;6.570;2024-03-23T09:46:47;7.07;;;2.33;;
75220;SDS011;63802;53.232;6.570;2024-03-23T09:49:13;3.25;;;1.35;;
75220;SDS011;63802;53.232;6.570;2024-03-23T09:51:38;5.13;;;1.48;;
75220;SDS011;63802;53.232;6.570;2024-03-23T09:54:04;3.80;;;1.20;;
75220;SDS011;63802;53.232;6.570;2024-03-23T09:56:32;11.40;;;1.60;;
75220;SDS011;63802;53.232;6.570;2024-03-23T09:59:06;4.88;;;1.10;;
75220;SDS011;63802;53.232;6.570;2024-03-23T10:01:36;3.58;;;1.20;;
75220;SDS011;63802;53.232;6.570;2024-03-23T10:04:02;4.93;;;1.30;;
75220;SDS011;63802;53.232;6.570;2024-03-23T10:06:28;6.43;;;1.25;;
75220;SDS011;63802;53.232;6.570;2024-03-23T10:08:54;3.35;;;0.82;;
75220;SDS011;63802;53.232;6.570;2024-03-23T10:11:22;1.42;;;0.82;;
75220;SDS011;63802;53.232;6.570;2024-03-23T10:13:48;3.22;;;0.50;;
75220;SDS011;63802;53.232;6.570;2024-03-23T10:16:25;7.60;;;2.20;;
75220;SDS011;63802;53.232;6.570;2024-03-23T10:18:52;3.70;;;0.80;;
75220;SDS011;63802;53.232;6.570;2024-03-23T10:21:18;2.88;;;0.85;;
75220;SDS011;63802;53.232;6.570;2024-03-23T10:23:46;7.18;;;1.50;;
75220;SDS011;63802;53.232;6.570;2024-03-23T10:26:22;7.38;;;1.50;;
75220;SDS011;63802;53.232;6.570;2024-03-23T10:31:33;8.95;;;2.05;;
75220;SDS011;63802;53.232;6.570;2024-03-23T10:34:03;10.32;;;1.80;;
75220;SDS011;63802;53.232;6.570;2024-03-23T10:36:29;9.30;;;2.75;;
75220;SDS011;63802;53.232;6.570;2024-03-23T10:38:55;11.02;;;2.20;;
75220;SDS011;63802;53.232;6.570;2024-03-23T10:41:27;8.82;;;1.50;;
75220;SDS011;63802;53.232;6.570;2024-03-23T10:43:56;9.30;;;1.80;;
75220;SDS011;63802;53.232;6.570;2024-03-23T10:46:23;5.72;;;1.80;;
75220;SDS011;63802;53.232;6.570;2024-03-23T10:48:51;5.30;;;1.50;;
75220;SDS011;63802;53.232;6.570;2024-03-23T10:51:18;5.78;;;1.55;;
75220;SDS011;63802;53.232;6.570;2024-03-23T10:53:46;8.02;;;1.80;;
75220;SDS011;63802;53.232;6.570;2024-03-23T10:56:13;9.97;;;1.93;;
75220;SDS011;63802;53.232;6.570;2024-03-23T10:58:41;8.13;;;1.33;;
75220;SDS011;63802;53.232;6.570;2024-03-23T11:01:12;6.40;;;1.08;;
75220;SDS011;63802;53.232;6.570;2024-03-23T11:03:39;8.23;;;1.45;;
75220;SDS011;63802;53.232;6.570;2024-03-23T11:06:33;5.13;;;1.42;;
75220;SDS011;63802;53.232;6.570;2024-03-23T11:08:59;7.38;;;1.50;;
75220;SDS011;63802;53.232;6.570;2024-03-23T11:11:25;5.10;;;1.10;;
75220;SDS011;63802;53.232;6.570;2024-03-23T11:13:52;6.03;;;1.45;;
75220;SDS011;63802;53.232;6.570;2024-03-23T11:16:22;8.13;;;1.65;;
75220;SDS011;63802;53.232;6.570;2024-03-23T11:22:03;6.43;;;1.83;;
75220;SDS011;63802;53.232;6.570;2024-03-23T11:24:33;6.10;;;1.38;;
75220;SDS011;63802;53.232;6.570;2024-03-23T11:27:00;6.22;;;1.30;;
75220;SDS011;63802;53.232;6.570;2024-03-23T11:29:29;3.05;;;1.15;;
75220;SDS011;63802;53.232;6.570;2024-03-23T11:31:58;5.82;;;1.10;;
75220;SDS011;63802;53.232;6.570;2024-03-23T11:34:24;6.30;;;1.70;;
75220;SDS011;63802;53.232;6.570;2024-03-23T11:36:49;3.45;;;1.23;;
75220;SDS011;63802;53.232;6.570;2024-03-23T11:39:31;6.03;;;1.70;;
75220;SDS011;63802;53.232;6.570;2024-03-23T11:41:57;8.00;;;2.13;;
75220;SDS011;63802;53.232;6.570;2024-03-23T11:44:30;5.20;;;1.65;;
75220;SDS011;63802;53.232;6.570;2024-03-23T11:47:16;7.78;;;1.63;;
75220;SDS011;63802;53.232;6.570;2024-03-23T11:49:41;10.13;;;1.70;;
75220;SDS011;63802;53.232;6.570;2024-03-23T11:52:14;4.25;;;1.77;;
75220;SDS011;63802;53.232;6.570;2024-03-23T11:54:44;9.45;;;2.78;;
75220;SDS011;63802;53.232;6.570;2024-03-23T11:57:09;8.07;;;2.20;;
75220;SDS011;63802;53.232;6.570;2024-03-23T11:59:39;6.22;;;1.85;;
75220;SDS011;63802;53.232;6.570;2024-03-23T12:02:06;6.75;;;1.67;;
75220;SDS011;63802;53.232;6.570;2024-03-23T12:04:32;7.85;;;1.70;;
75220;SDS011;63802;53.232;6.570;2024-03-23T12:07:11;9.00;;;1.55;;
75220;SDS011;63802;53.232;6.570;2024-03-23T12:12:10;7.47;;;1.88;;
75220;SDS011;63802;53.232;6.570;2024-03-23T12:17:33;11.73;;;2.17;;
75220;SDS011;63802;53.232;6.570;2024-03-23T12:20:05;8.43;;;1.63;;
75220;SDS011;63802;53.232;6.570;2024-03-23T12:22:32;9.70;;;1.70;;
75220;SDS011;63802;53.232;6.570;2024-03-23T12:25:07;7.60;;;1.83;;
75220;SDS011;63802;53.232;6.570;2024-03-23T12:27:38;4.43;;;1.35;;
75220;SDS011;63802;53.232;6.570;2024-03-23T12:30:04;6.22;;;1.45;;
75220;SDS011;63802;53.232;6.570;2024-03-23T12:32:37;5.55;;;1.50;;
75220;SDS011;63802;53.232;6.570;2024-03-23T12:35:08;7.13;;;1.58;;
75220;SDS011;63802;53.232;6.570;2024-03-23T12:37:36;6.20;;;1.10;;
75220;SDS011;63802;53.232;6.570;2024-03-23T12:40:12;4.97;;;1.20;;
75220;SDS011;63802;53.232;6.570;2024-03-23T12:42:57;4.13;;;0.90;;
75220;SDS011;63802;53.232;6.570;2024-03-23T12:45:23;6.70;;;1.63;;
75220;SDS011;63802;53.232;6.570;2024-03-23T12:47:49;4.15;;;1.48;;
75220;SDS011;63802;53.232;6.570;2024-03-23T12:50:17;6.18;;;1.70;;
75220;SDS011;63802;53.232;6.570;2024-03-23T12:52:46;5.57;;;2.05;;
75220;SDS011;63802;53.232;6.570;2024-03-23T12:55:12;4.03;;;1.40;;
75220;SDS011;63802;53.232;6.570;2024-03-23T12:57:43;7.88;;;1.63;;
75220;SDS011;63802;53.232;6.570;2024-03-23T13:00:17;8.57;;;1.58;;
75220;SDS011;63802;53.232;6.570;2024-03-23T13:02:45;4.90;;;1.30;;
75220;SDS011;63802;53.232;6.570;2024-03-23T13:05:11;7.57;;;1.40;;
75220;SDS011;63802;53.232;6.570;2024-03-23T13:07:49;7.18;;;1.05;;
75220;SDS011;63802;53.232;6.570;2024-03-23T13:10:15;5.25;;;1.40;;
75220;SDS011;63802;53.232;6.570;2024-03-23T13:12:41;5.88;;;1.60;;
75220;SDS011;63802;53.232;6.570;2024-03-23T13:15:07;7.72;;;2.10;;
75220;SDS011;63802;53.232;6.570;2024-03-23T13:17:33;9.13;;;1.70;;
75220;SDS011;63802;53.232;6.570;2024-03-23T13:19:59;9.25;;;1.92;;
75220;SDS011;63802;53.232;6.570;2024-03-23T13:22:26;7.25;;;1.60;;
75220;SDS011;63802;53.232;6.570;2024-03-23T13:24:54;5.57;;;1.60;;
75220;SDS011;63802;53.232;6.570;2024-03-23T13:27:19;7.05;;;1.52;;
75220;SDS011;63802;53.232;6.570;2024-03-23T13:29:47;6.25;;;1.27;;
75220;SDS011;63802;53.232;6.570;2024-03-23T13:32:13;5.90;;;1.50;;
75220;SDS011;63802;53.232;6.570;2024-03-23T13:34:39;7.55;;;1.70;;
75220;SDS011;63802;53.232;6.570;2024-03-23T13:37:08;11.32;;;2.85;;
75220;SDS011;63802;53.232;6.570;2024-03-23T13:39:34;6.53;;;1.77;;
75220;SDS011;63802;53.232;6.570;2024-03-23T13:42:01;5.43;;;1.70;;
75220;SDS011;63802;53.232;6.570;2024-03-23T13:44:28;2.35;;;1.15;;
75220;SDS011;63802;53.232;6.570;2024-03-23T13:46:56;4.78;;;1.23;;
75220;SDS011;63802;53.232;6.570;2024-03-23T13:49:29;4.43;;;1.33;;
75220;SDS011;63802;53.232;6.570;2024-03-23T13:51:58;6.45;;;1.52;;
75220;SDS011;63802;53.232;6.570;2024-03-23T13:54:26;5.95;;;1.27;;
75220;SDS011;63802;53.232;6.570;2024-03-23T13:56:53;8.40;;;1.75;;
75220;SDS011;63802;53.232;6.570;2024-03-23T13:59:20;2.63;;;1.20;;
75220;SDS011;63802;53.232;6.570;2024-03-23T14:01:48;4.18;;;1.23;;
75220;SDS011;63802;53.232;6.570;2024-03-23T14:04:14;6.00;;;1.30;;
75220;SDS011;63802;53.232;6.570;2024-03-23T14:06:41;4.22;;;1.10;;
75220;SDS011;63802;53.232;6.570;2024-03-23T14:09:07;5.32;;;1.20;;
75220;SDS011;63802;53.232;6.570;2024-03-23T14:11:36;7.60;;;1.33;;
75220;SDS011;63802;53.232;6.570;2024-03-23T14:14:05;8.40;;;2.15;;
75220;SDS011;63802;53.232;6.570;2024-03-23T14:16:30;4.75;;;1.30;;
75220;SDS011;63802;53.232;6.570;2024-03-23T14:18:57;5.93;;;1.65;;
75220;SDS011;63802;53.232;6.570;2024-03-23T14:21:23;4.75;;;1.58;;
75220;SDS011;63802;53.232;6.570;2024-03-23T14:23:53;6.57;;;1.20;;
75220;SDS011;63802;53.232;6.570;2024-03-23T14:26:23;4.13;;;1.30;;
75220;SDS011;63802;53.232;6.570;2024-03-23T14:28:51;8.73;;;1.50;;
75220;SDS011;63802;53.232;6.570;2024-03-23T14:31:20;6.95;;;1.80;;
75220;SDS011;63802;53.232;6.570;2024-03-23T14:33:46;9.82;;;1.65;;
75220;SDS011;63802;53.232;6.570;2024-03-23T14:36:15;8.95;;;1.50;;
75220;SDS011;63802;53.232;6.570;2024-03-23T14:38:42;8.43;;;1.77;;
75220;SDS011;63802;53.232;6.570;2024-03-23T14:41:14;6.28;;;1.92;;
75220;SDS011;63802;53.232;6.570;2024-03-23T14:43:42;6.47;;;1.52;;
75220;SDS011;63802;53.232;6.570;2024-03-23T14:48:41;5.68;;;1.73;;
75220;SDS011;63802;53.232;6.570;2024-03-23T14:51:17;8.65;;;1.88;;
75220;SDS011;63802;53.232;6.570;2024-03-23T14:53:47;10.77;;;1.60;;
75220;SDS011;63802;53.232;6.570;2024-03-23T14:56:24;11.30;;;1.75;;
75220;SDS011;63802;53.232;6.570;2024-03-23T14:58:53;7.97;;;1.40;;
75220;SDS011;63802;53.232;6.570;2024-03-23T15:01:20;5.72;;;1.52;;
75220;SDS011;63802;53.232;6.570;2024-03-23T15:03:46;6.45;;;1.70;;
75220;SDS011;63802;53.232;6.570;2024-03-23T15:06:15;6.88;;;1.60;;
75220;SDS011;63802;53.232;6.570;2024-03-23T15:08:43;8.80;;;1.80;;
75220;SDS011;63802;53.232;6.570;2024-03-23T15:11:08;12.57;;;1.98;;
75220;SDS011;63802;53.232;6.570;2024-03-23T15:13:37;7.90;;;1.35;;
75220;SDS011;63802;53.232;6.570;2024-03-23T15:16:04;8.93;;;1.60;;
75220;SDS011;63802;53.232;6.570;2024-03-23T15:18:30;3.92;;;1.40;;
75220;SDS011;63802;53.232;6.570;2024-03-23T15:21:02;9.30;;;1.95;;
75220;SDS011;63802;53.232;6.570;2024-03-23T15:23:32;7.40;;;1.42;;
75220;SDS011;63802;53.232;6.570;2024-03-23T15:25:58;8.80;;;1.55;;
75220;SDS011;63802;53.232;6.570;2024-03-23T15:28:28;5.43;;;1.23;;
75220;SDS011;63802;53.232;6.570;2024-03-23T15:31:05;8.55;;;1.73;;
75220;SDS011;63802;53.232;6.570;2024-03-23T15:36:15;4.88;;;1.85;;
75220;SDS011;63802;53.232;6.570;2024-03-23T15:38:42;10.75;;;1.95;;
75220;SDS011;63802;53.232;6.570;2024-03-23T15:41:14;9.90;;;1.88;;
75220;SDS011;63802;53.232;6.570;2024-03-23T15:43:40;9.60;;;1.98;;
75220;SDS011;63802;53.232;6.570;2024-03-23T15:46:08;6.90;;;1.70;;
75220;SDS011;63802;53.232;6.570;2024-03-23T15:48:39;6.97;;;1.60;;
75220;SDS011;63802;53.232;6.570;2024-03-23T15:51:04;5.78;;;1.20;;
75220;SDS011;63802;53.232;6.570;2024-03-23T15:53:30;7.45;;;1.80;;
75220;SDS011;63802;53.232;6.570;2024-03-23T15:55:59;10.18;;;1.67;;
75220;SDS011;63802;53.232;6.570;2024-03-23T15:58:26;13.60;;;2.03;;
75220;SDS011;63802;53.232;6.570;2024-03-23T16:01:03;6.93;;;1.58;;
75220;SDS011;63802;53.232;6.570;2024-03-23T16:03:35;8.40;;;1.60;;
75220;SDS011;63802;53.232;6.570;2024-03-23T16:06:04;5.90;;;1.60;;
75220;SDS011;63802;53.232;6.570;2024-03-23T16:08:32;9.43;;;1.70;;
75220;SDS011;63802;53.232;6.570;2024-03-23T16:11:05;6.35;;;1.42;;
75220;SDS011;63802;53.232;6.570;2024-03-23T16:13:31;9.02;;;2.17;;
75220;SDS011;63802;53.232;6.570;2024-03-23T16:15:58;9.55;;;2.15;;
75220;SDS011;63802;53.232;6.570;2024-03-23T16:18:27;10.38;;;1.60;;
75220;SDS011;63802;53.232;6.570;2024-03-23T16:21:03;8.48;;;1.60;;
75220;SDS011;63802;53.232;6.570;2024-03-23T16:23:48;11.63;;;1.90;;
75220;SDS011;63802;53.232;6.570;2024-03-23T16:26:22;6.20;;;1.25;;
75220;SDS011;63802;53.232;6.570;2024-03-23T16:28:52;6.30;;;1.45;;
75220;SDS011;63802;53.232;6.570;2024-03-23T16:31:20;15.43;;;2.03;;
75220;SDS011;63802;53.232;6.570;2024-03-23T16:33:49;10.03;;;1.50;;
75220;SDS011;63802;53.232;6.570;2024-03-23T16:36:24;6.47;;;1.85;;
75220;SDS011;63802;53.232;6.570;2024-03-23T16:38:50;4.93;;;1.33;;
75220;SDS011;63802;53.232;6.570;2024-03-23T16:41:16;6.70;;;1.70;;
75220;SDS011;63802;53.232;6.570;2024-03-23T16:43:41;10.02;;;1.83;;
75220;SDS011;63802;53.232;6.570;2024-03-23T16:46:27;6.72;;;1.35;;
75220;SDS011;63802;53.232;6.570;2024-03-23T16:48:53;7.63;;;1.70;;
75220;SDS011;63802;53.232;6.570;2024-03-23T16:51:19;12.50;;;2.10;;
75220;SDS011;63802;53.232;6.570;2024-03-23T16:53:44;7.00;;;1.42;;
75220;SDS011;63802;53.232;6.570;2024-03-23T16:56:11;8.10;;;1.60;;
75220;SDS011;63802;53.232;6.570;2024-03-23T16:58:37;6.35;;;1.75;;
75220;SDS011;63802;53.232;6.570;2024-03-23T17:01:05;7.85;;;1.80;;
75220;SDS011;63802;53.232;6.570;2024-03-23T17:03:50;8.93;;;2.10;;
75220;SDS011;63802;53.232;6.570;2024-03-23T17:06:26;6.15;;;1.80;;
75220;SDS011;63802;53.232;6.570;2024-03-23T17:08:52;9.10;;;1.52;;
75220;SDS011;63802;53.232;6.570;2024-03-23T17:11:20;9.38;;;1.85;;
75220;SDS011;63802;53.232;6.570;2024-03-23T17:13:46;13.25;;;2.33;;
75220;SDS011;63802;53.232;6.570;2024-03-23T17:16:13;5.75;;;1.60;;
75220;SDS011;63802;53.232;6.570;2024-03-23T17:18:40;9.00;;;1.95;;
75220;SDS011;63802;53.232;6.570;2024-03-23T17:21:05;10.57;;;2.00;;
75220;SDS011;63802;53.232;6.570;2024-03-23T17:23:31;3.83;;;1.23;;
75220;SDS011;63802;53.232;6.570;2024-03-23T17:25:57;7.53;;;1.60;;
75220;SDS011;63802;53.232;6.570;2024-03-23T17:28:26;11.32;;;1.80;;
75220;SDS011;63802;53.232;6.570;2024-03-23T17:30:51;7.43;;;1.65;;
75220;SDS011;63802;53.232;6.570;2024-03-23T17:33:20;9.38;;;1.85;;
75220;SDS011;63802;53.232;6.570;2024-03-23T17:35:48;7.07;;;1.98;;
75220;SDS011;63802;53.232;6.570;2024-03-23T17:38:33;11.13;;;2.17;;
75220;SDS011;63802;53.232;6.570;2024-03-23T17:41:07;10.48;;;1.88;;
75220;SDS011;63802;53.232;6.570;2024-03-23T17:43:37;8.20;;;1.67;;
75220;SDS011;63802;53.232;6.570;2024-03-23T17:46:03;6.90;;;2.40;;
75220;SDS011;63802;53.232;6.570;2024-03-23T17:48:30;9.77;;;2.10;;
75220;SDS011;63802;53.232;6.570;2024-03-23T17:51:10;11.18;;;1.77;;
75220;SDS011;63802;53.232;6.570;2024-03-23T17:53:38;10.68;;;2.03;;
75220;SDS011;63802;53.232;6.570;2024-03-23T17:56:07;8.18;;;1.90;;
75220;SDS011;63802;53.232;6.570;2024-03-23T17:58:48;9.52;;;1.75;;
75220;SDS011;63802;53.232;6.570;2024-03-23T18:01:14;9.98;;;1.85;;
75220;SDS011;63802;53.232;6.570;2024-03-23T18:03:52;9.32;;;2.15;;
75220;SDS011;63802;53.232;6.570;2024-03-23T18:06:21;5.45;;;1.77;;
75220;SDS011;63802;53.232;6.570;2024-03-23T18:08:50;7.88;;;1.67;;
75220;SDS011;63802;53.232;6.570;2024-03-23T18:11:22;12.98;;;2.22;;
75220;SDS011;63802;53.232;6.570;2024-03-23T18:13:49;14.43;;;2.38;;
75220;SDS011;63802;53.232;6.570;2024-03-23T18:16:14;11.95;;;2.47;;
75220;SDS011;63802;53.232;6.570;2024-03-23T18:18:40;3.40;;;1.80;;
75220;SDS011;63802;53.232;6.570;2024-03-23T18:21:05;9.55;;;2.33;;
75220;SDS011;63802;53.232;6.570;2024-03-23T18:23:31;4.70;;;1.90;;
75220;SDS011;63802;53.232;6.570;2024-03-23T18:25:57;8.80;;;2.22;;
75220;SDS011;63802;53.232;6.570;2024-03-23T18:28:27;5.20;;;2.08;;
75220;SDS011;63802;53.232;6.570;2024-03-23T18:30:59;6.57;;;1.90;;
75220;SDS011;63802;53.232;6.570;2024-03-23T18:33:29;11.75;;;2.42;;
75220;SDS011;63802;53.232;6.570;2024-03-23T18:35:59;10.63;;;2.35;;
75220;SDS011;63802;53.232;6.570;2024-03-23T18:38:25;14.27;;;2.47;;
75220;SDS011;63802;53.232;6.570;2024-03-23T18:40:51;8.93;;;2.33;;
75220;SDS011;63802;53.232;6.570;2024-03-23T18:43:25;12.35;;;2.03;;
75220;SDS011;63802;53.232;6.570;2024-03-23T18:46:02;4.53;;;1.90;;
75220;SDS011;63802;53.232;6.570;2024-03-23T18:48:28;6.75;;;1.80;;
75220;SDS011;63802;53.232;6.570;2024-03-23T18:51:04;8.52;;;1.75;;
75220;SDS011;63802;53.232;6.570;2024-03-23T18:53:29;9.50;;;2.08;;
75220;SDS011;63802;53.232;6.570;2024-03-23T18:56:07;2.88;;;1.67;;
75220;SDS011;63802;53.232;6.570;2024-03-23T18:58:33;6.93;;;2.30;;
75220;SDS011;63802;53.232;6.570;2024-03-23T19:04:04;6.60;;;2.30;;
75220;SDS011;63802;53.232;6.570;2024-03-23T19:06:29;9.27;;;2.03;;
75220;SDS011;63802;53.232;6.570;2024-03-23T19:09:01;6.53;;;1.63;;
75220;SDS011;63802;53.232;6.570;2024-03-23T19:11:27;12.52;;;2.08;;
75220;SDS011;63802;53.232;6.570;2024-03-23T19:14:14;12.38;;;2.33;;